createdAt,value
2018-10-05T00:00:12.437Z,3.58
2018-10-05T00:02:39.766Z,4.25
2018-10-05T00:05:07.246Z,4.30
2018-10-05T00:07:34.570Z,4.30
2018-10-05T00:10:01.893Z,4.37
2018-10-05T00:12:29.218Z,3.45
2018-10-05T00:14:57.403Z,4.55
2018-10-05T00:17:24.929Z,3.90
2018-10-05T00:19:52.185Z,4.40
2018-10-05T00:22:19.421Z,4.15
2018-10-05T00:24:46.758Z,4.33
2018-10-05T00:27:14.127Z,4.58
2018-10-05T00:29:41.403Z,3.62
2018-10-05T00:32:08.803Z,3.65
2018-10-05T00:34:36.177Z,4.15
2018-10-05T00:37:03.558Z,3.45
2018-10-05T00:39:31.045Z,4.65
2018-10-05T00:41:58.499Z,3.85
2018-10-05T00:44:25.992Z,4.30
2018-10-05T00:46:53.452Z,4.17
2018-10-05T00:49:20.887Z,4.10
2018-10-05T00:51:48.229Z,3.80
2018-10-05T00:54:15.586Z,4.78
2018-10-05T00:56:42.957Z,5.08
2018-10-05T00:59:10.356Z,4.03
2018-10-05T01:01:37.723Z,4.33
2018-10-05T01:04:05.070Z,3.70
2018-10-05T01:06:32.354Z,5.45
2018-10-05T01:08:59.677Z,4.20
2018-10-05T01:12:51.476Z,3.85
2018-10-05T01:15:18.843Z,4.62
2018-10-05T01:17:46.213Z,4.75
2018-10-05T01:20:13.640Z,3.58
2018-10-05T01:22:40.864Z,4.97
2018-10-05T01:25:08.103Z,4.55
2018-10-05T01:27:35.428Z,4.47
2018-10-05T01:30:02.699Z,5.10
2018-10-05T01:32:30.009Z,4.28
2018-10-05T01:34:57.416Z,4.80
2018-10-05T01:37:24.607Z,4.50
2018-10-05T01:39:51.902Z,3.75
2018-10-05T01:42:19.201Z,3.55
2018-10-05T01:44:46.536Z,4.20
2018-10-05T01:47:13.814Z,4.35
2018-10-05T01:49:41.141Z,5.17
2018-10-05T01:52:08.362Z,5.10
2018-10-05T01:54:35.677Z,4.35
2018-10-05T01:57:02.970Z,4.33
2018-10-05T01:59:30.222Z,4.75
2018-10-05T02:01:57.431Z,4.15
2018-10-05T02:04:24.785Z,4.28
2018-10-05T02:06:52.000Z,3.72
2018-10-05T02:09:19.338Z,4.55
2018-10-05T02:11:46.570Z,3.85
2018-10-05T02:14:13.814Z,4.75
2018-10-05T02:16:41.070Z,4.22
2018-10-05T02:19:08.376Z,4.15
2018-10-05T02:21:35.665Z,3.95
2018-10-05T02:24:02.970Z,3.77
2018-10-05T02:26:30.286Z,3.87
2018-10-05T02:28:57.577Z,4.60
2018-10-05T02:31:24.924Z,5.08
2018-10-05T02:33:52.233Z,4.15
2018-10-05T02:36:19.643Z,4.78
2018-10-05T02:38:47.013Z,5.70
2018-10-05T02:41:14.304Z,3.90
2018-10-05T02:43:41.654Z,3.72
2018-10-05T02:46:09.030Z,4.58
2018-10-05T02:48:36.365Z,4.50
2018-10-05T02:51:03.899Z,3.77
2018-10-05T02:53:31.257Z,4.85
2018-10-05T02:55:58.753Z,4.25
2018-10-05T02:58:26.137Z,4.75
2018-10-05T03:01:04.619Z,4.20
2018-10-05T03:03:31.990Z,4.25
2018-10-05T03:05:59.258Z,3.95
2018-10-05T03:08:26.540Z,3.75
2018-10-05T03:10:53.897Z,5.05
2018-10-05T03:13:21.196Z,4.62
2018-10-05T03:15:48.512Z,3.90
2018-10-05T03:18:15.755Z,4.40
2018-10-05T03:20:43.041Z,4.97
2018-10-05T03:23:10.446Z,3.52
2018-10-05T03:25:37.810Z,5.28
2018-10-05T03:28:05.082Z,4.22
2018-10-05T03:30:32.395Z,4.22
2018-10-05T03:32:59.693Z,4.17
2018-10-05T03:35:27.099Z,4.50
2018-10-05T03:37:54.354Z,3.72
2018-10-05T03:40:21.699Z,4.35
2018-10-05T03:42:49.046Z,3.50
2018-10-05T03:45:16.420Z,3.95
2018-10-05T03:47:43.725Z,4.58
2018-10-05T03:50:11.025Z,5.00
2018-10-05T03:52:38.495Z,4.03
2018-10-05T03:55:05.856Z,4.35
2018-10-05T03:57:33.262Z,4.85
2018-10-05T04:00:01.023Z,4.75
2018-10-05T04:02:28.326Z,4.62
2018-10-05T04:04:55.631Z,3.60
2018-10-05T04:07:22.936Z,3.80
2018-10-05T04:09:50.359Z,3.83
2018-10-05T04:12:17.663Z,4.17
2018-10-05T04:14:44.902Z,4.83
2018-10-05T04:17:12.195Z,4.58
2018-10-05T04:19:39.513Z,4.87
2018-10-05T04:22:06.752Z,4.67
2018-10-05T04:24:33.994Z,4.92
2018-10-05T04:27:01.301Z,4.97
2018-10-05T04:29:28.523Z,4.97
2018-10-05T04:31:55.822Z,4.28
2018-10-05T04:34:23.118Z,4.05
2018-10-05T04:36:50.414Z,4.47
2018-10-05T04:39:17.786Z,5.30
2018-10-05T04:41:45.079Z,5.78
2018-10-05T04:44:12.417Z,5.53
2018-10-05T04:46:39.795Z,5.75
2018-10-05T04:49:07.144Z,5.62
2018-10-05T04:51:34.492Z,5.72
2018-10-05T04:54:01.822Z,6.17
2018-10-05T04:56:29.143Z,7.47
2018-10-05T04:58:56.417Z,6.08
2018-10-05T05:01:23.806Z,6.20
2018-10-05T05:03:51.110Z,5.35
2018-10-05T05:06:18.526Z,6.90
2018-10-05T05:08:45.790Z,6.22
2018-10-05T05:11:13.159Z,5.87
2018-10-05T05:13:40.540Z,6.20
2018-10-05T05:16:07.919Z,6.65
2018-10-05T05:18:35.297Z,6.03
2018-10-05T05:21:02.611Z,5.75
2018-10-05T05:23:29.880Z,5.65
2018-10-05T05:25:57.248Z,6.70
2018-10-05T05:28:24.523Z,6.00
2018-10-05T05:30:51.824Z,6.42
2018-10-05T05:33:19.248Z,6.47
2018-10-05T05:35:46.514Z,6.08
2018-10-05T05:38:13.792Z,6.75
2018-10-05T05:40:41.062Z,5.37
2018-10-05T05:43:08.370Z,36.40
2018-10-05T05:45:35.725Z,7.72
2018-10-05T05:48:03.015Z,16.82
2018-10-05T05:50:30.296Z,25.40
2018-10-05T05:52:57.536Z,73.80
2018-10-05T05:55:24.802Z,57.75
2018-10-05T05:57:52.124Z,31.25
2018-10-05T06:00:19.399Z,17.67
2018-10-05T06:02:46.659Z,10.85
2018-10-05T06:05:13.965Z,10.25
2018-10-05T06:07:41.242Z,7.72
2018-10-05T06:10:08.495Z,10.10
2018-10-05T06:12:35.769Z,8.95
2018-10-05T06:15:03.118Z,8.93
2018-10-05T06:17:30.407Z,8.45
2018-10-05T06:19:57.688Z,8.73
2018-10-05T06:22:25.397Z,7.20
2018-10-05T06:24:52.430Z,7.35
2018-10-05T06:32:05.714Z,9.58
2018-10-05T06:34:33.088Z,8.40
2018-10-05T06:37:00.329Z,6.62
2018-10-05T06:39:27.638Z,8.10
2018-10-05T06:41:54.976Z,8.33
2018-10-05T06:44:22.332Z,7.95
2018-10-05T06:46:49.611Z,9.30
2018-10-05T06:49:16.982Z,7.58
2018-10-05T06:51:44.233Z,7.45
2018-10-05T06:54:11.516Z,9.15
2018-10-05T06:56:38.835Z,7.08
2018-10-05T06:59:06.252Z,5.53
2018-10-05T07:01:33.622Z,7.62
2018-10-05T07:04:00.939Z,6.57
2018-10-05T07:06:28.239Z,6.10
2018-10-05T07:08:55.540Z,7.20
2018-10-05T07:11:22.914Z,6.27
2018-10-05T07:13:50.213Z,5.50
2018-10-05T07:16:17.572Z,7.30
2018-10-05T07:18:44.866Z,6.77
2018-10-05T07:21:12.263Z,7.20
2018-10-05T07:23:39.521Z,6.67
2018-10-05T07:26:06.997Z,7.67
2018-10-05T07:28:34.499Z,7.00
2018-10-05T07:31:01.596Z,7.37
2018-10-05T07:33:28.972Z,7.50
2018-10-05T07:35:57.048Z,7.80
2018-10-05T07:38:24.443Z,8.03
2018-10-05T07:40:51.758Z,7.90
2018-10-05T07:43:19.404Z,7.90
2018-10-05T07:45:46.695Z,8.07
2018-10-05T07:48:13.963Z,7.50
2018-10-05T07:50:41.301Z,7.97
2018-10-05T07:53:08.712Z,8.37
2018-10-05T07:55:36.015Z,8.00
2018-10-05T07:58:03.458Z,7.73
2018-10-05T08:00:30.775Z,7.20
2018-10-05T08:02:58.110Z,7.77
2018-10-05T08:05:25.415Z,8.10
2018-10-05T08:07:52.773Z,7.80
2018-10-05T08:10:20.117Z,9.30
2018-10-05T08:12:47.346Z,10.40
2018-10-05T08:15:14.624Z,8.40
2018-10-05T08:17:41.878Z,9.33
2018-10-05T08:20:09.207Z,8.80
2018-10-05T08:22:36.406Z,10.27
2018-10-05T08:25:03.868Z,12.13
2018-10-05T08:27:31.230Z,8.53
2018-10-05T08:29:58.646Z,10.43
2018-10-05T08:32:26.049Z,8.60
2018-10-05T08:34:53.288Z,9.13
2018-10-05T08:37:20.640Z,9.93
2018-10-05T08:39:47.921Z,9.93
2018-10-05T08:42:15.287Z,10.33
2018-10-05T08:44:42.576Z,11.50
2018-10-05T08:47:09.912Z,11.50
2018-10-05T08:49:37.226Z,9.70
2018-10-05T08:52:04.549Z,10.17
2018-10-05T08:54:31.820Z,12.10
2018-10-05T08:56:59.166Z,10.67
2018-10-05T08:59:26.498Z,12.03
2018-10-05T09:01:53.798Z,12.20
2018-10-05T09:04:21.032Z,11.33
2018-10-05T09:06:48.289Z,12.77
2018-10-05T09:09:15.662Z,12.03
2018-10-05T09:11:42.877Z,10.70
2018-10-05T09:14:10.216Z,10.83
2018-10-05T09:16:37.628Z,12.70
2018-10-05T09:19:04.973Z,11.80
2018-10-05T09:21:32.791Z,11.70
2018-10-05T09:24:00.098Z,11.13
2018-10-05T09:26:27.388Z,9.73
2018-10-05T09:28:54.641Z,10.20
2018-10-05T09:31:21.914Z,9.80
2018-10-05T09:33:49.239Z,10.03
2018-10-05T09:36:16.644Z,9.63
2018-10-05T09:38:44.851Z,10.83
2018-10-05T09:41:12.336Z,11.23
2018-10-05T09:43:39.629Z,10.33
2018-10-05T09:46:07.035Z,9.50
2018-10-05T09:48:34.400Z,10.27
2018-10-05T09:51:01.787Z,9.30
2018-10-05T09:53:29.236Z,9.90
2018-10-05T09:55:57.339Z,9.80
2018-10-05T09:58:24.637Z,14.40
2018-10-05T10:00:57.592Z,10.17
2018-10-05T10:03:29.416Z,7.73
2018-10-05T10:05:56.630Z,8.87
2018-10-05T10:08:24.020Z,8.80
2018-10-05T10:10:51.329Z,8.10
2018-10-05T10:13:18.608Z,8.30
2018-10-05T10:15:45.831Z,7.30
2018-10-05T10:18:13.249Z,8.80
2018-10-05T10:20:40.796Z,6.20
2018-10-05T10:23:08.184Z,7.20
2018-10-05T10:25:35.508Z,7.90
2018-10-05T10:28:02.987Z,7.60
2018-10-05T10:30:30.305Z,7.43
2018-10-05T10:32:57.586Z,6.77
2018-10-05T10:35:24.880Z,7.37
2018-10-05T10:37:52.191Z,6.70
2018-10-05T10:40:19.582Z,6.47
2018-10-05T10:42:47.014Z,6.20
2018-10-05T10:45:14.307Z,6.00
2018-10-05T10:47:41.860Z,6.10
2018-10-05T10:50:09.162Z,5.77
2018-10-05T10:52:36.500Z,5.70
2018-10-05T10:55:04.379Z,5.60
2018-10-05T10:57:31.897Z,5.30
2018-10-05T11:00:02.330Z,5.73
2018-10-05T11:02:29.868Z,5.30
2018-10-05T11:04:57.341Z,5.57
2018-10-05T11:07:24.619Z,4.97
2018-10-05T11:09:51.876Z,5.43
2018-10-05T11:12:19.142Z,4.60
2018-10-05T11:14:46.458Z,4.50
2018-10-05T11:17:14.397Z,3.13
2018-10-05T11:19:41.966Z,3.30
2018-10-05T11:22:09.261Z,4.00
2018-10-05T11:24:36.604Z,3.90
2018-10-05T11:27:03.929Z,3.80
2018-10-05T11:29:31.313Z,4.00
2018-10-05T11:31:58.569Z,3.77
2018-10-05T11:34:25.904Z,3.60
2018-10-05T11:36:53.190Z,3.90
2018-10-05T11:39:20.581Z,4.33
2018-10-05T11:41:47.965Z,4.53
2018-10-05T11:44:15.202Z,4.03
2018-10-05T11:46:43.281Z,4.10
2018-10-05T11:49:10.608Z,4.83
2018-10-05T11:51:37.998Z,3.10
2018-10-05T11:54:05.322Z,3.80
2018-10-05T11:56:32.747Z,3.87
2018-10-05T11:59:00.063Z,2.90
2018-10-05T12:01:27.306Z,3.50
2018-10-05T12:03:54.575Z,3.37
2018-10-05T12:06:21.860Z,3.13
2018-10-05T12:08:49.253Z,3.43
2018-10-05T12:11:16.587Z,3.30
2018-10-05T12:13:43.962Z,3.30
2018-10-05T12:16:11.277Z,2.90
2018-10-05T12:18:38.545Z,3.00
2018-10-05T12:21:05.880Z,2.97
2018-10-05T12:23:33.268Z,3.40
2018-10-05T12:26:00.652Z,2.37
2018-10-05T12:28:27.986Z,4.40
2018-10-05T12:30:55.372Z,3.13
2018-10-05T12:33:22.752Z,5.10
2018-10-05T12:35:50.122Z,3.57
2018-10-05T12:38:17.424Z,3.00
2018-10-05T12:40:44.616Z,3.20
2018-10-05T12:43:12.054Z,3.30
2018-10-05T12:45:39.350Z,3.37
2018-10-05T12:48:06.654Z,3.60
2018-10-05T12:50:34.072Z,3.20
2018-10-05T12:53:01.390Z,3.27
2018-10-05T12:55:28.807Z,3.33
2018-10-05T12:57:56.101Z,2.33
2018-10-05T13:00:23.748Z,2.60
2018-10-05T13:02:51.077Z,3.00
2018-10-05T13:05:18.426Z,2.80
2018-10-05T13:07:45.697Z,3.00
2018-10-05T13:10:13.121Z,2.53
2018-10-05T13:12:40.497Z,3.30
2018-10-05T13:15:07.926Z,2.63
2018-10-05T13:17:35.383Z,4.03
2018-10-05T13:20:03.250Z,3.23
2018-10-05T13:22:49.121Z,3.70
2018-10-05T13:25:16.383Z,4.50
2018-10-05T13:27:43.708Z,3.70
2018-10-05T13:30:11.022Z,3.67
2018-10-05T13:32:38.510Z,2.70
2018-10-05T13:35:05.818Z,2.70
2018-10-05T13:37:33.170Z,2.80
2018-10-05T13:40:00.530Z,3.47
2018-10-05T13:42:27.950Z,3.87
2018-10-05T13:44:55.316Z,2.93
2018-10-05T13:47:22.692Z,3.90
2018-10-05T13:49:50.098Z,3.20
2018-10-05T13:52:17.408Z,4.00
2018-10-05T13:54:44.740Z,2.70
2018-10-05T13:57:12.055Z,3.00
2018-10-05T13:59:39.478Z,3.90
2018-10-05T14:02:06.716Z,2.83
2018-10-05T14:04:33.938Z,2.87
2018-10-05T14:07:01.226Z,2.37
2018-10-05T14:09:28.556Z,2.73
2018-10-05T14:11:55.922Z,2.83
2018-10-05T14:14:23.356Z,3.50
2018-10-05T14:16:50.632Z,3.17
2018-10-05T14:19:17.985Z,3.60
2018-10-05T14:21:45.400Z,4.13
2018-10-05T14:24:12.635Z,3.87
2018-10-05T14:26:40.016Z,3.60
2018-10-05T14:29:07.365Z,3.80
2018-10-05T14:31:34.641Z,3.47
2018-10-05T14:34:01.990Z,2.57
2018-10-05T14:36:29.885Z,2.93
2018-10-05T14:38:57.315Z,2.80
2018-10-05T14:41:24.670Z,3.00
2018-10-05T14:43:52.033Z,2.47
2018-10-05T14:46:19.455Z,2.73
2018-10-05T14:48:46.760Z,3.23
2018-10-05T14:51:14.137Z,3.30
2018-10-05T14:53:41.483Z,2.70
2018-10-05T14:56:09.138Z,21.93
2018-10-05T14:58:36.424Z,8.00
2018-10-05T15:02:33.285Z,4.10
2018-10-05T15:05:00.544Z,3.30
2018-10-05T15:07:27.965Z,2.70
2018-10-05T15:09:55.480Z,2.60
2018-10-05T15:12:22.809Z,2.37
2018-10-05T15:14:50.146Z,2.20
2018-10-05T15:17:17.467Z,2.50
2018-10-05T15:19:44.718Z,2.30
2018-10-05T15:22:12.083Z,3.20
2018-10-05T15:24:39.633Z,1.80
2018-10-05T15:27:07.179Z,2.33
2018-10-05T15:29:34.488Z,2.10
2018-10-05T15:32:02.199Z,2.10
2018-10-05T15:34:29.510Z,2.50
2018-10-05T15:36:56.845Z,2.60
2018-10-05T15:39:24.153Z,3.17
2018-10-05T15:41:51.448Z,3.17
2018-10-05T15:44:19.608Z,3.03
2018-10-05T15:47:04.696Z,3.03
2018-10-05T15:49:32.725Z,2.57
2018-10-05T15:52:00.214Z,3.00
2018-10-05T15:54:27.460Z,2.90
2018-10-05T15:56:54.786Z,2.80
2018-10-05T15:59:22.226Z,2.83
2018-10-05T16:01:49.500Z,2.23
2018-10-05T16:04:17.002Z,2.40
2018-10-05T16:06:44.412Z,3.63
2018-10-05T16:09:11.736Z,2.60
2018-10-05T16:11:39.084Z,3.10
2018-10-05T16:14:06.818Z,2.60
2018-10-05T16:16:34.243Z,2.73
2018-10-05T16:19:02.366Z,2.73
2018-10-05T16:21:29.726Z,3.27
2018-10-05T16:23:57.430Z,3.07
2018-10-05T16:26:25.027Z,3.70
2018-10-05T16:28:52.348Z,2.80
2018-10-05T16:31:19.691Z,2.90
2018-10-05T16:33:46.954Z,2.70
2018-10-05T16:36:14.368Z,58.93
2018-10-05T16:38:41.891Z,17.43
2018-10-05T16:41:09.161Z,35.40
2018-10-05T16:43:36.553Z,4.10
2018-10-05T16:46:03.855Z,2.90
2018-10-05T16:48:31.118Z,3.30
2018-10-05T16:50:58.590Z,3.23
2018-10-05T16:53:25.888Z,3.90
2018-10-05T16:55:53.202Z,3.00
2018-10-05T16:58:20.541Z,3.07
2018-10-05T17:00:47.860Z,3.00
2018-10-05T17:03:15.205Z,3.40
2018-10-05T17:05:42.928Z,2.83
2018-10-05T17:08:11.837Z,4.17
2018-10-05T17:10:39.262Z,3.03
2018-10-05T17:13:06.487Z,3.00
2018-10-05T17:15:33.807Z,3.27
2018-10-05T17:18:01.188Z,3.07
2018-10-05T17:20:28.548Z,2.40
2018-10-05T17:22:55.888Z,2.90
2018-10-05T17:25:23.120Z,3.30
2018-10-05T17:27:51.392Z,3.13
2018-10-05T17:30:18.646Z,2.60
2018-10-05T17:32:45.938Z,3.77
2018-10-05T17:35:13.308Z,3.33
2018-10-05T17:37:40.496Z,3.37
2018-10-05T17:40:08.191Z,2.90
2018-10-05T17:42:35.470Z,3.80
2018-10-05T17:45:02.808Z,4.13
2018-10-05T17:47:30.098Z,4.93
2018-10-05T17:49:57.448Z,3.70
2018-10-05T17:52:24.728Z,3.30
2018-10-05T17:54:52.877Z,4.00
2018-10-05T17:57:20.231Z,3.90
2018-10-05T17:59:47.477Z,4.07
2018-10-05T18:02:14.783Z,4.23
2018-10-05T18:04:42.097Z,4.30
2018-10-05T18:07:09.443Z,4.13
2018-10-05T18:09:36.711Z,5.60
2018-10-05T18:12:04.021Z,5.17
2018-10-05T18:14:32.020Z,4.80
2018-10-05T18:16:59.420Z,6.10
2018-10-05T18:19:26.636Z,5.33
2018-10-05T18:21:53.974Z,4.80
2018-10-05T18:24:21.300Z,5.07
2018-10-05T18:26:48.661Z,5.60
2018-10-05T18:29:16.066Z,6.00
2018-10-05T18:31:43.398Z,5.70
2018-10-05T18:34:10.695Z,6.20
2018-10-05T18:36:38.065Z,5.90
2018-10-05T18:39:07.262Z,7.10
2018-10-05T18:41:34.818Z,5.53
2018-10-05T18:44:02.159Z,5.90
2018-10-05T18:46:29.358Z,5.13
2018-10-05T18:48:56.678Z,4.40
2018-10-05T18:51:23.993Z,4.83
2018-10-05T18:53:51.391Z,4.37
2018-10-05T18:56:30.342Z,10.77
2018-10-05T18:58:57.667Z,11.90
2018-10-05T19:01:24.979Z,5.77
2018-10-05T19:03:52.312Z,4.23
2018-10-05T19:06:19.674Z,5.07
2018-10-05T19:08:47.031Z,4.67
2018-10-05T19:11:14.423Z,5.50
2018-10-05T19:13:41.772Z,5.20
2018-10-05T19:16:09.062Z,4.57
2018-10-05T19:18:36.424Z,5.03
2018-10-05T19:21:03.804Z,4.67
2018-10-05T19:23:31.120Z,4.90
2018-10-05T19:25:58.518Z,5.50
2018-10-05T19:28:25.807Z,4.37
2018-10-05T19:30:53.109Z,5.70
2018-10-05T19:33:20.707Z,5.43
2018-10-05T19:35:48.031Z,4.97
2018-10-05T19:38:15.399Z,4.77
2018-10-05T19:40:42.714Z,4.00
2018-10-05T19:43:10.030Z,5.27
2018-10-05T19:45:37.368Z,4.70
2018-10-05T19:48:04.678Z,4.53
2018-10-05T19:50:31.940Z,4.73
2018-10-05T19:52:59.331Z,5.90
2018-10-05T19:55:26.942Z,5.57
2018-10-05T19:57:54.413Z,6.50
2018-10-05T20:00:21.676Z,6.70
2018-10-05T20:02:48.932Z,7.00
2018-10-05T20:05:16.482Z,6.20
2018-10-05T20:07:43.892Z,6.20
2018-10-05T20:10:11.219Z,5.90
2018-10-05T20:12:38.529Z,6.60
2018-10-05T20:15:05.954Z,6.53
2018-10-05T20:17:33.333Z,5.70
2018-10-05T20:20:00.586Z,6.00
2018-10-05T20:22:27.883Z,5.20
2018-10-05T20:24:55.172Z,5.17
2018-10-05T20:27:22.467Z,5.67
2018-10-05T20:29:49.852Z,5.50
2018-10-05T20:32:17.287Z,5.00
2018-10-05T20:34:44.656Z,4.40
2018-10-05T20:37:12.248Z,6.40
2018-10-05T20:39:39.546Z,5.30
2018-10-05T20:42:06.908Z,4.50
2018-10-05T20:44:34.210Z,4.63
2018-10-05T20:47:01.444Z,4.30
2018-10-05T20:49:28.903Z,4.53
2018-10-05T20:51:56.202Z,4.77
2018-10-05T20:54:23.479Z,4.83
2018-10-05T20:56:50.812Z,5.20
2018-10-05T20:59:18.308Z,5.30
2018-10-05T21:01:45.615Z,5.33
2018-10-05T21:04:13.310Z,4.70
2018-10-05T21:06:40.708Z,3.90
2018-10-05T21:09:08.973Z,4.00
2018-10-05T21:11:36.316Z,4.83
2018-10-05T21:14:03.868Z,5.63
2018-10-05T21:16:31.174Z,6.10
2018-10-05T21:18:58.536Z,10.23
2018-10-05T21:21:26.529Z,9.13
2018-10-05T21:23:53.805Z,6.03
2018-10-05T21:26:21.071Z,7.33
2018-10-05T21:28:48.414Z,9.27
2018-10-05T21:31:15.666Z,6.50
2018-10-05T21:33:42.939Z,7.70
2018-10-05T21:36:10.343Z,7.23
2018-10-05T21:38:37.641Z,6.60
2018-10-05T21:41:05.007Z,6.90
2018-10-05T21:43:32.377Z,6.60
2018-10-05T21:45:59.716Z,7.70
2018-10-05T21:48:27.022Z,5.97
2018-10-05T21:50:54.295Z,5.40
2018-10-05T21:53:21.863Z,6.90
2018-10-05T21:55:49.176Z,6.40
2018-10-05T21:58:16.595Z,5.93
2018-10-05T22:00:43.910Z,7.33
2018-10-05T22:03:11.428Z,5.77
2018-10-05T22:05:38.958Z,5.80
2018-10-05T22:08:06.344Z,5.23
2018-10-05T22:10:33.697Z,6.10
2018-10-05T22:13:01.247Z,6.70
2018-10-05T22:15:28.530Z,6.73
2018-10-05T22:17:55.931Z,5.37
2018-10-05T22:20:23.496Z,5.63
2018-10-05T22:22:51.053Z,6.00
2018-10-05T22:25:18.488Z,7.20
2018-10-05T22:27:45.847Z,7.03
2018-10-05T22:30:13.087Z,6.13
2018-10-05T22:32:40.358Z,6.53
2018-10-05T22:35:07.690Z,6.43
2018-10-05T22:37:34.990Z,6.87
2018-10-05T22:40:02.306Z,6.70
2018-10-05T22:42:29.608Z,6.53
2018-10-05T22:44:56.908Z,6.97
2018-10-05T22:47:24.194Z,6.95
2018-10-05T22:49:51.485Z,6.73
2018-10-05T22:52:18.843Z,7.50
2018-10-05T22:54:46.075Z,7.10
2018-10-05T22:57:13.346Z,6.03
2018-10-05T22:59:40.628Z,6.70
2018-10-05T23:02:07.936Z,7.30
2018-10-05T23:04:35.273Z,7.53
2018-10-05T23:07:02.677Z,6.97
2018-10-05T23:09:29.955Z,7.72
2018-10-05T23:11:57.299Z,7.08
2018-10-05T23:14:24.629Z,5.80
2018-10-05T23:16:51.898Z,6.80
2018-10-05T23:19:19.246Z,7.95
2018-10-05T23:21:46.546Z,7.35
2018-10-05T23:24:13.837Z,8.08
2018-10-05T23:28:05.604Z,8.00
2018-10-05T23:30:32.953Z,6.67
2018-10-05T23:33:00.233Z,6.95
2018-10-05T23:35:27.536Z,7.83
2018-10-05T23:37:54.799Z,7.00
2018-10-05T23:40:22.086Z,6.90
2018-10-05T23:43:53.353Z,8.28
2018-10-05T23:46:20.656Z,8.18
2018-10-05T23:48:47.922Z,7.90
2018-10-05T23:51:15.280Z,8.48
2018-10-05T23:53:42.713Z,8.50
2018-10-05T23:56:09.971Z,8.10
2018-10-05T23:58:37.305Z,8.28
